Forside
METAR-TAF:

METAR-TAF

Lufthavne :

Dundee, Skotland

Breddekreds: 56-27N, længdekreds: 003-01W, højde: 4 m

Aktuelle vejr

Denne rapport blev lavet for 17 minutter siden, kl. 12:20 UTC
Vind 6 kt fra vest, varierende mellem vestsydvest og nordvest
Temperatur 10°C
Fugtighed 57%
Tryk 1033 hPa
Sigt 10 km eller mere
Brudte skyer i en højde af 4800 ft

METAR: EGPN 311220Z 28006KT 250V310 9999 BKN048 10/02 Q1033

Tid: 13:37 (12:37 UTC)

Vejrudsigter

Denne rapport blev lavet for 1 time og 33 minutter siden, kl. 11:04 UTC
Foreløbig gælder fra 31 på 12 UTC til 31 på 18 UTC
Vind 7 kt fra vestnordvest
Sigt 10 km eller mere
Spredte skyer i en højde af 4700 ft

TAF: EGPN 311104Z 3112/3118 29007KT 9999 SCT047

Vejrobservationer og prognoser fra mere end 4000 lufthavne (METAR og TAF).

De gule og røde prikker repræsenterer de meteorologiske stationer.

Flyt musen over at se navnet på stationen.

Så klik over at se vejr observationer og prognoser.

At skifte det kort: Klik på de grønne knapper med et sort kors for at zoome ind; på den grønne knap med en bindestreg for at zoome ud; eller på de grønne pile for tilstødende kort.


METAR-TAF: